sensor_id;sensor_type;location;lat;lon;timestamp;pressure;altitude;pressure_sealevel;temperature;humidity
13709;BME280;54933;51.908;7.730;2023-02-18T00:01:01;101465.03;;;20.12;75.22
13709;BME280;54933;51.908;7.730;2023-02-18T00:03:29;101459.63;;;20.12;75.23
13709;BME280;54933;51.908;7.730;2023-02-18T00:05:54;101460.47;;;20.13;75.04
13709;BME280;54933;51.908;7.730;2023-02-18T00:08:20;101464.19;;;20.12;75.08
13709;BME280;54933;51.908;7.730;2023-02-18T00:10:46;101465.88;;;20.13;75.14
13709;BME280;54933;51.908;7.730;2023-02-18T00:13:12;101460.47;;;20.13;75.21
13709;BME280;54933;51.908;7.730;2023-02-18T00:15:37;101471.28;;;20.13;75.00
13709;BME280;54933;51.908;7.730;2023-02-18T00:18:03;101461.47;;;20.12;75.05
13709;BME280;54933;51.908;7.730;2023-02-18T00:20:29;101452.38;;;20.13;75.10
13709;BME280;54933;51.908;7.730;2023-02-18T00:22:55;101465.03;;;20.12;75.03
13709;BME280;54933;51.908;7.730;2023-02-18T00:25:20;101453.38;;;20.12;75.19
13709;BME280;54933;51.908;7.730;2023-02-18T00:27:46;101455.06;;;20.13;75.15
13709;BME280;54933;51.908;7.730;2023-02-18T00:30:11;101452.38;;;20.13;75.08
13709;BME280;54933;51.908;7.730;2023-02-18T00:32:37;101449.69;;;20.13;75.04
13709;BME280;54933;51.908;7.730;2023-02-18T00:35:02;101448.00;;;20.12;75.05
13709;BME280;54933;51.908;7.730;2023-02-18T00:37:28;101445.31;;;20.12;75.01
13709;BME280;54933;51.908;7.730;2023-02-18T00:39:53;101433.50;;;20.13;75.03
13709;BME280;54933;51.908;7.730;2023-02-18T00:42:18;101422.69;;;20.13;74.98
13709;BME280;54933;51.908;7.730;2023-02-18T00:44:44;101426.41;;;20.12;74.86
13709;BME280;54933;51.908;7.730;2023-02-18T00:47:09;101418.31;;;20.12;74.99
13709;BME280;54933;51.908;7.730;2023-02-18T00:49:34;101422.06;;;20.11;74.88
13709;BME280;54933;51.908;7.730;2023-02-18T00:52:00;101422.69;;;20.13;74.92
13709;BME280;54933;51.908;7.730;2023-02-18T00:54:25;101424.75;;;20.11;74.78
13709;BME280;54933;51.908;7.730;2023-02-18T00:56:51;101426.41;;;20.12;74.79
13709;BME280;54933;51.908;7.730;2023-02-18T00:59:16;101419.34;;;20.11;74.89
13709;BME280;54933;51.908;7.730;2023-02-18T01:01:41;101414.81;;;20.11;74.85
13709;BME280;54933;51.908;7.730;2023-02-18T01:04:06;101414.81;;;20.11;74.82
13709;BME280;54933;51.908;7.730;2023-02-18T01:06:32;101421.00;;;20.12;74.77
13709;BME280;54933;51.908;7.730;2023-02-18T01:08:58;101423.72;;;20.12;74.85
13709;BME280;54933;51.908;7.730;2023-02-18T01:11:24;101416.47;;;20.12;74.71
13709;BME280;54933;51.908;7.730;2023-02-18T01:13:50;101421.00;;;20.12;74.64
13709;BME280;54933;51.908;7.730;2023-02-18T01:16:16;101411.06;;;20.12;74.92
13709;BME280;54933;51.908;7.730;2023-02-18T01:18:41;101408.38;;;20.12;75.49
13709;BME280;54933;51.908;7.730;2023-02-18T01:21:08;101417.31;;;20.13;74.82
13709;BME280;54933;51.908;7.730;2023-02-18T01:23:34;101417.31;;;20.13;74.65
13709;BME280;54933;51.908;7.730;2023-02-18T01:26:00;101420.00;;;20.13;74.85
13709;BME280;54933;51.908;7.730;2023-02-18T01:28:25;101411.91;;;20.13;74.79
13709;BME280;54933;51.908;7.730;2023-02-18T01:30:51;101404.63;;;20.13;74.74
13709;BME280;54933;51.908;7.730;2023-02-18T01:33:18;101401.13;;;20.13;74.76
13709;BME280;54933;51.908;7.730;2023-02-18T01:35:43;101401.13;;;20.13;74.77
13709;BME280;54933;51.908;7.730;2023-02-18T01:38:09;101410.88;;;20.14;74.52
13709;BME280;54933;51.908;7.730;2023-02-18T01:40:35;101402.78;;;20.14;74.71
13709;BME280;54933;51.908;7.730;2023-02-18T01:43:01;101395.72;;;20.13;74.61
13709;BME280;54933;51.908;7.730;2023-02-18T01:48:04;101397.38;;;20.14;74.82
13709;BME280;54933;51.908;7.730;2023-02-18T01:50:30;101382.06;;;20.14;74.78
13709;BME280;54933;51.908;7.730;2023-02-18T01:52:57;101377.47;;;20.15;74.52
13709;BME280;54933;51.908;7.730;2023-02-18T01:55:23;101381.19;;;20.14;74.65
13709;BME280;54933;51.908;7.730;2023-02-18T01:57:48;101382.06;;;20.14;74.61
13709;BME280;54933;51.908;7.730;2023-02-18T02:00:16;101378.31;;;20.15;74.69
13709;BME280;54933;51.908;7.730;2023-02-18T02:02:45;101378.50;;;20.14;74.24
13709;BME280;54933;51.908;7.730;2023-02-18T02:05:11;101371.28;;;20.14;74.70
13709;BME280;54933;51.908;7.730;2023-02-18T02:07:38;101380.19;;;20.15;74.46
13709;BME280;54933;51.908;7.730;2023-02-18T02:10:05;101372.94;;;20.15;74.37
13709;BME280;54933;51.908;7.730;2023-02-18T02:15:32;101360.28;;;20.16;74.50
13709;BME280;54933;51.908;7.730;2023-02-18T02:18:25;101349.50;;;20.16;74.58
13709;BME280;54933;51.908;7.730;2023-02-18T02:26:55;101345.94;;;20.15;74.48
13709;BME280;54933;51.908;7.730;2023-02-18T02:40:09;101335.16;;;20.15;74.41
13709;BME280;54933;51.908;7.730;2023-02-18T02:42:58;101325.19;;;20.16;74.52
13709;BME280;54933;51.908;7.730;2023-02-18T02:45:42;101315.44;;;20.15;74.27
13709;BME280;54933;51.908;7.730;2023-02-18T02:51:06;101324.38;;;20.15;74.57
13709;BME280;54933;51.908;7.730;2023-02-18T02:53:34;101303.63;;;20.16;74.46
13709;BME280;54933;51.908;7.730;2023-02-18T02:56:00;101304.63;;;20.15;74.43
13709;BME280;54933;51.908;7.730;2023-02-18T02:58:25;101299.22;;;20.15;74.65
13709;BME280;54933;51.908;7.730;2023-02-18T03:01:01;101290.13;;;20.16;74.39
13709;BME280;54933;51.908;7.730;2023-02-18T03:03:46;101286.38;;;20.17;74.34
13709;BME280;54933;51.908;7.730;2023-02-18T03:06:41;101284.72;;;20.16;74.50
13709;BME280;54933;51.908;7.730;2023-02-18T03:12:15;101257.75;;;20.16;74.31
13709;BME280;54933;51.908;7.730;2023-02-18T03:17:15;101255.06;;;20.16;74.41
13709;BME280;54933;51.908;7.730;2023-02-18T03:20:05;101240.72;;;20.15;74.28
13709;BME280;54933;51.908;7.730;2023-02-18T03:22:38;101241.56;;;20.16;74.44
13709;BME280;54933;51.908;7.730;2023-02-18T03:25:06;101240.50;;;20.17;74.33
13709;BME280;54933;51.908;7.730;2023-02-18T03:27:37;101236.97;;;20.16;74.39
13709;BME280;54933;51.908;7.730;2023-02-18T03:30:21;101235.31;;;20.15;74.37
13709;BME280;54933;51.908;7.730;2023-02-18T03:32:52;101211.88;;;20.16;74.15
13709;BME280;54933;51.908;7.730;2023-02-18T03:35:20;101217.28;;;20.16;74.35
13709;BME280;54933;51.908;7.730;2023-02-18T03:37:52;101219.97;;;20.16;74.23
13709;BME280;54933;51.908;7.730;2023-02-18T03:40:18;101206.47;;;20.16;74.17
13709;BME280;54933;51.908;7.730;2023-02-18T03:42:44;101201.09;;;20.16;74.21
13709;BME280;54933;51.908;7.730;2023-02-18T03:45:09;101211.88;;;20.16;74.15
13709;BME280;54933;51.908;7.730;2023-02-18T03:47:35;101202.75;;;20.17;74.27
13709;BME280;54933;51.908;7.730;2023-02-18T03:50:00;101194.66;;;20.17;74.27
13709;BME280;54933;51.908;7.730;2023-02-18T03:52:26;101198.19;;;20.17;74.10
13709;BME280;54933;51.908;7.730;2023-02-18T03:54:51;101195.50;;;20.17;74.14
13709;BME280;54933;51.908;7.730;2023-02-18T03:57:17;101190.94;;;20.18;73.89
13709;BME280;54933;51.908;7.730;2023-02-18T03:59:42;101183.66;;;20.18;74.21
13709;BME280;54933;51.908;7.730;2023-02-18T04:02:07;101183.84;;;20.17;74.12
13709;BME280;54933;51.908;7.730;2023-02-18T04:04:32;101174.75;;;20.18;74.06
13709;BME280;54933;51.908;7.730;2023-02-18T04:06:58;101178.25;;;20.18;74.06
13709;BME280;54933;51.908;7.730;2023-02-18T04:09:23;101180.13;;;20.18;74.16
13709;BME280;54933;51.908;7.730;2023-02-18T04:11:48;101180.13;;;20.18;74.08
13709;BME280;54933;51.908;7.730;2023-02-18T04:14:14;101163.75;;;20.19;74.24
13709;BME280;54933;51.908;7.730;2023-02-18T04:16:40;101155.84;;;20.18;73.96
13709;BME280;54933;51.908;7.730;2023-02-18T04:19:05;101169.16;;;20.19;74.11
13709;BME280;54933;51.908;7.730;2023-02-18T04:21:31;101155.84;;;20.18;74.18
13709;BME280;54933;51.908;7.730;2023-02-18T04:23:56;101156.66;;;20.18;74.02
13709;BME280;54933;51.908;7.730;2023-02-18T04:26:22;101149.41;;;20.19;74.26
13709;BME280;54933;51.908;7.730;2023-02-18T04:28:47;101156.47;;;20.20;74.16
13709;BME280;54933;51.908;7.730;2023-02-18T04:31:12;101155.66;;;20.19;74.13
13709;BME280;54933;51.908;7.730;2023-02-18T04:33:38;101154.81;;;20.19;74.12
13709;BME280;54933;51.908;7.730;2023-02-18T04:36:03;101141.31;;;20.19;74.18
13709;BME280;54933;51.908;7.730;2023-02-18T04:38:29;101148.38;;;20.20;74.06
13709;BME280;54933;51.908;7.730;2023-02-18T04:40:54;101146.72;;;20.19;74.07
13709;BME280;54933;51.908;7.730;2023-02-18T04:43:19;101133.44;;;20.17;74.00
13709;BME280;54933;51.908;7.730;2023-02-18T04:45:44;101135.28;;;20.17;74.00
13709;BME280;54933;51.908;7.730;2023-02-18T04:48:10;101126.19;;;20.18;73.77
13709;BME280;54933;51.908;7.730;2023-02-18T04:50:35;101132.19;;;20.20;74.26
13709;BME280;54933;51.908;7.730;2023-02-18T04:53:00;101124.28;;;20.18;74.21
13709;BME280;54933;51.908;7.730;2023-02-18T04:55:25;101126.78;;;20.20;74.11
13709;BME280;54933;51.908;7.730;2023-02-18T04:57:51;101119.75;;;20.19;74.05
13709;BME280;54933;51.908;7.730;2023-02-18T05:00:18;101121.38;;;20.20;74.24
13709;BME280;54933;51.908;7.730;2023-02-18T05:02:44;101123.88;;;20.21;74.24
13709;BME280;54933;51.908;7.730;2023-02-18T05:05:10;101116.00;;;20.20;74.41
13709;BME280;54933;51.908;7.730;2023-02-18T05:07:35;101114.13;;;20.20;74.30
13709;BME280;54933;51.908;7.730;2023-02-18T05:10:00;101114.97;;;20.21;74.26
13709;BME280;54933;51.908;7.730;2023-02-18T05:12:26;101121.38;;;20.20;74.28
13709;BME280;54933;51.908;7.730;2023-02-18T05:14:51;101112.47;;;20.19;74.44
13709;BME280;54933;51.908;7.730;2023-02-18T05:17:16;101107.09;;;20.19;73.88
13709;BME280;54933;51.908;7.730;2023-02-18T05:19:42;101096.50;;;20.18;74.16
13709;BME280;54933;51.908;7.730;2023-02-18T05:22:07;101084.03;;;20.17;74.31
13709;BME280;54933;51.908;7.730;2023-02-18T05:24:33;101079.47;;;20.17;74.20
13709;BME280;54933;51.908;7.730;2023-02-18T05:26:58;101070.53;;;20.17;74.47
13709;BME280;54933;51.908;7.730;2023-02-18T05:29:23;101067.84;;;20.17;73.80
13709;BME280;54933;51.908;7.730;2023-02-18T05:31:48;101065.13;;;20.17;74.40
13709;BME280;54933;51.908;7.730;2023-02-18T05:34:14;101048.94;;;20.17;74.41
13709;BME280;54933;51.908;7.730;2023-02-18T05:36:39;101043.56;;;20.17;74.41
13709;BME280;54933;51.908;7.730;2023-02-18T05:39:04;101040.22;;;20.15;74.07
13709;BME280;54933;51.908;7.730;2023-02-18T05:41:29;101044.59;;;20.16;74.37
13709;BME280;54933;51.908;7.730;2023-02-18T05:43:55;101036.50;;;20.16;74.31
13709;BME280;54933;51.908;7.730;2023-02-18T05:46:39;101028.41;;;20.16;74.27
13709;BME280;54933;51.908;7.730;2023-02-18T05:49:04;101041.91;;;20.16;74.38
13709;BME280;54933;51.908;7.730;2023-02-18T05:51:29;101033.81;;;20.16;74.22
13709;BME280;54933;51.908;7.730;2023-02-18T05:53:55;101025.72;;;20.16;74.29
13709;BME280;54933;51.908;7.730;2023-02-18T05:56:20;101020.31;;;20.16;74.53
13709;BME280;54933;51.908;7.730;2023-02-18T05:58:45;101021.13;;;20.16;74.34
13709;BME280;54933;51.908;7.730;2023-02-18T06:01:11;101018.63;;;20.15;74.36
13709;BME280;54933;51.908;7.730;2023-02-18T06:03:36;101017.63;;;20.16;74.26
13709;BME280;54933;51.908;7.730;2023-02-18T06:06:01;101015.94;;;20.15;74.16
13709;BME280;54933;51.908;7.730;2023-02-18T06:08:27;101013.03;;;20.16;74.12
13709;BME280;54933;51.908;7.730;2023-02-18T06:10:52;101006.00;;;20.15;74.24
13709;BME280;54933;51.908;7.730;2023-02-18T06:13:17;101011.38;;;20.15;74.22
13709;BME280;54933;51.908;7.730;2023-02-18T06:15:43;101009.53;;;20.16;74.35
13709;BME280;54933;51.908;7.730;2023-02-18T06:18:08;101009.53;;;20.16;74.28
13709;BME280;54933;51.908;7.730;2023-02-18T06:20:33;101001.44;;;20.16;74.32
13709;BME280;54933;51.908;7.730;2023-02-18T06:22:59;101012.22;;;20.16;74.14
13709;BME280;54933;51.908;7.730;2023-02-18T06:25:24;101011.56;;;20.14;74.25
13709;BME280;54933;51.908;7.730;2023-02-18T06:27:49;101008.03;;;20.13;74.19
13709;BME280;54933;51.908;7.730;2023-02-18T06:30:15;101012.44;;;20.14;74.29
13709;BME280;54933;51.908;7.730;2023-02-18T06:32:40;101007.84;;;20.15;73.87
13709;BME280;54933;51.908;7.730;2023-02-18T06:35:06;101002.44;;;20.15;74.24
13709;BME280;54933;51.908;7.730;2023-02-18T06:37:31;100996.03;;;20.16;74.24
13709;BME280;54933;51.908;7.730;2023-02-18T06:39:57;100992.50;;;20.15;74.12
13709;BME280;54933;51.908;7.730;2023-02-18T06:42:22;100990.63;;;20.16;74.37
13709;BME280;54933;51.908;7.730;2023-02-18T06:44:48;100997.69;;;20.17;74.37
13709;BME280;54933;51.908;7.730;2023-02-18T06:47:13;100990.63;;;20.16;74.41
13709;BME280;54933;51.908;7.730;2023-02-18T06:49:38;101003.09;;;20.17;74.18
13709;BME280;54933;51.908;7.730;2023-02-18T06:52:04;100990.63;;;20.16;74.24
13709;BME280;54933;51.908;7.730;2023-02-18T06:54:29;100990.63;;;20.16;74.28
13709;BME280;54933;51.908;7.730;2023-02-18T06:56:55;101004.13;;;20.16;74.55
13709;BME280;54933;51.908;7.730;2023-02-18T06:59:20;100993.34;;;20.16;74.17
13709;BME280;54933;51.908;7.730;2023-02-18T07:01:45;100993.34;;;20.16;74.02
13709;BME280;54933;51.908;7.730;2023-02-18T07:04:11;100994.34;;;20.15;74.44
13709;BME280;54933;51.908;7.730;2023-02-18T07:06:36;100988.97;;;20.15;74.48
13709;BME280;54933;51.908;7.730;2023-02-18T07:09:01;100989.81;;;20.15;74.34
13709;BME280;54933;51.908;7.730;2023-02-18T07:11:26;100988.97;;;20.15;74.54
13709;BME280;54933;51.908;7.730;2023-02-18T07:13:52;100980.47;;;20.18;74.22
13709;BME280;54933;51.908;7.730;2023-02-18T07:16:17;100989.38;;;20.18;74.25
13709;BME280;54933;51.908;7.730;2023-02-18T07:18:42;100982.75;;;20.14;74.25
13709;BME280;54933;51.908;7.730;2023-02-18T07:21:07;100986.44;;;20.13;74.29
13709;BME280;54933;51.908;7.730;2023-02-18T07:23:33;100978.56;;;20.12;74.22
13709;BME280;54933;51.908;7.730;2023-02-18T07:26:11;100989.75;;;20.09;74.33
13709;BME280;54933;51.908;7.730;2023-02-18T07:28:38;100987.28;;;20.07;74.44
13709;BME280;54933;51.908;7.730;2023-02-18T07:31:04;100989.34;;;20.05;74.45
13709;BME280;54933;51.908;7.730;2023-02-18T07:33:30;100988.09;;;20.08;74.64
13709;BME280;54933;51.908;7.730;2023-02-18T07:35:56;100980.03;;;20.08;74.53
13709;BME280;54933;51.908;7.730;2023-02-18T07:38:23;100982.72;;;20.08;74.56
13709;BME280;54933;51.908;7.730;2023-02-18T07:40:49;100984.38;;;20.09;74.77
13709;BME280;54933;51.908;7.730;2023-02-18T07:43:14;100992.25;;;20.10;74.98
13709;BME280;54933;51.908;7.730;2023-02-18T07:45:39;100989.75;;;20.09;75.13
13709;BME280;54933;51.908;7.730;2023-02-18T07:48:05;100986.22;;;20.08;75.13
13709;BME280;54933;51.908;7.730;2023-02-18T07:50:30;100988.09;;;20.08;75.22
13709;BME280;54933;51.908;7.730;2023-02-18T07:53:01;100996.19;;;20.08;75.01
13709;BME280;54933;51.908;7.730;2023-02-18T07:55:27;100998.91;;;20.08;75.13
13709;BME280;54933;51.908;7.730;2023-02-18T07:58:13;100993.72;;;20.06;75.36
13709;BME280;54933;51.908;7.730;2023-02-18T08:00:38;101002.63;;;20.07;75.40
13709;BME280;54933;51.908;7.730;2023-02-18T08:03:03;100998.22;;;19.80;71.93
13709;BME280;54933;51.908;7.730;2023-02-18T08:05:29;100994.69;;;19.86;71.21
13709;BME280;54933;51.908;7.730;2023-02-18T08:07:54;100992.00;;;19.92;71.50
13709;BME280;54933;51.908;7.730;2023-02-18T08:10:20;101000.53;;;19.96;72.27
13709;BME280;54933;51.908;7.730;2023-02-18T08:12:45;101000.09;;;19.99;72.68
13709;BME280;54933;51.908;7.730;2023-02-18T08:15:12;100998.03;;;20.01;72.91
13709;BME280;54933;51.908;7.730;2023-02-18T08:17:37;100994.47;;;19.87;72.91
13709;BME280;54933;51.908;7.730;2023-02-18T08:20:02;101005.06;;;19.89;72.08
13709;BME280;54933;51.908;7.730;2023-02-18T08:22:29;100992.84;;;19.93;72.55
13709;BME280;54933;51.908;7.730;2023-02-18T08:24:54;101000.53;;;19.96;72.86
13709;BME280;54933;51.908;7.730;2023-02-18T08:27:20;101003.84;;;19.98;73.01
13709;BME280;54933;51.908;7.730;2023-02-18T08:29:45;101002.00;;;19.98;73.45
13709;BME280;54933;51.908;7.730;2023-02-18T08:32:12;101003.66;;;19.99;73.79
13709;BME280;54933;51.908;7.730;2023-02-18T08:34:37;101003.84;;;19.98;73.43
13709;BME280;54933;51.908;7.730;2023-02-18T08:37:03;101002.59;;;20.00;73.52
13709;BME280;54933;51.908;7.730;2023-02-18T08:39:33;101008.00;;;20.00;73.43
13709;BME280;54933;51.908;7.730;2023-02-18T08:41:59;100994.72;;;19.99;73.78
13709;BME280;54933;51.908;7.730;2023-02-18T08:44:25;100997.19;;;19.94;73.59
13709;BME280;54933;51.908;7.730;2023-02-18T08:46:51;100995.53;;;19.93;73.52
13709;BME280;54933;51.908;7.730;2023-02-18T08:49:16;100998.44;;;19.91;73.68
13709;BME280;54933;51.908;7.730;2023-02-18T08:51:42;100987.88;;;19.90;73.69
13709;BME280;54933;51.908;7.730;2023-02-18T08:54:07;100981.44;;;19.91;73.70
13709;BME280;54933;51.908;7.730;2023-02-18T08:56:32;100959.84;;;19.91;74.37
13709;BME280;54933;51.908;7.730;2023-02-18T08:58:58;100973.97;;;19.93;74.58
13709;BME280;54933;51.908;7.730;2023-02-18T09:01:23;100962.53;;;19.91;74.92
13709;BME280;54933;51.908;7.730;2023-02-18T09:03:48;100968.78;;;19.91;75.27
13709;BME280;54933;51.908;7.730;2023-02-18T09:06:14;100966.09;;;19.91;75.23
13709;BME280;54933;51.908;7.730;2023-02-18T09:08:39;100969.63;;;19.92;75.65
13709;BME280;54933;51.908;7.730;2023-02-18T09:11:04;100973.13;;;19.92;75.74
13709;BME280;54933;51.908;7.730;2023-02-18T09:13:31;100986.41;;;19.94;75.97
13709;BME280;54933;51.908;7.730;2023-02-18T09:16:03;100976.47;;;19.94;76.03
13709;BME280;54933;51.908;7.730;2023-02-18T09:18:29;100983.50;;;19.95;76.28
13709;BME280;54933;51.908;7.730;2023-02-18T09:20:56;100986.84;;;19.97;76.40
13709;BME280;54933;51.908;7.730;2023-02-18T09:23:22;100984.97;;;19.98;76.46
13709;BME280;54933;51.908;7.730;2023-02-18T09:25:47;100972.72;;;19.95;76.49
13709;BME280;54933;51.908;7.730;2023-02-18T09:28:12;100989.94;;;19.94;76.82
13709;BME280;54933;51.908;7.730;2023-02-18T09:30:38;100980.81;;;19.95;76.66
13709;BME280;54933;51.908;7.730;2023-02-18T09:33:04;100986.84;;;19.97;76.86
13709;BME280;54933;51.908;7.730;2023-02-18T09:35:29;100987.03;;;19.96;76.82
13709;BME280;54933;51.908;7.730;2023-02-18T09:37:54;100990.50;;;19.70;75.05
13709;BME280;54933;51.908;7.730;2023-02-18T09:40:25;100985.56;;;19.80;74.90
13709;BME280;54933;51.908;7.730;2023-02-18T09:42:54;100993.66;;;19.87;75.25
13709;BME280;54933;51.908;7.730;2023-02-18T09:45:20;100995.75;;;19.91;75.67
13709;BME280;54933;51.908;7.730;2023-02-18T09:47:46;100994.50;;;19.94;75.82
13709;BME280;54933;51.908;7.730;2023-02-18T09:50:27;100986.00;;;19.97;76.02
13709;BME280;54933;51.908;7.730;2023-02-18T09:52:53;100993.06;;;19.98;76.13
13709;BME280;54933;51.908;7.730;2023-02-18T09:55:27;100989.31;;;19.99;76.14
13709;BME280;54933;51.908;7.730;2023-02-18T09:57:55;100987.66;;;19.98;75.87
13709;BME280;54933;51.908;7.730;2023-02-18T10:00:30;100988.50;;;19.98;76.28
13709;BME280;54933;51.908;7.730;2023-02-18T10:05:28;100995.56;;;19.99;76.11
13709;BME280;54933;51.908;7.730;2023-02-18T10:08:00;100991.00;;;20.00;76.34
13709;BME280;54933;51.908;7.730;2023-02-18T10:10:38;100999.09;;;20.00;76.32
13709;BME280;54933;51.908;7.730;2023-02-18T10:13:11;100991.00;;;20.00;76.43
13709;BME280;54933;51.908;7.730;2023-02-18T10:15:37;100999.09;;;20.00;76.36
13709;BME280;54933;51.908;7.730;2023-02-18T10:18:04;100999.91;;;20.00;76.60
13709;BME280;54933;51.908;7.730;2023-02-18T10:20:36;101013.03;;;19.56;74.68
13709;BME280;54933;51.908;7.730;2023-02-18T10:23:02;101015.72;;;19.50;72.83
13709;BME280;54933;51.908;7.730;2023-02-18T10:25:30;101013.72;;;19.65;72.77
13709;BME280;54933;51.908;7.730;2023-02-18T10:27:57;101017.25;;;19.72;73.01
13709;BME280;54933;51.908;7.730;2023-02-18T10:30:30;101009.19;;;19.78;73.52
13709;BME280;54933;51.908;7.730;2023-02-18T10:33:06;101005.88;;;19.83;74.21
13709;BME280;54933;51.908;7.730;2023-02-18T10:35:52;101029.75;;;19.86;74.41
13709;BME280;54933;51.908;7.730;2023-02-18T10:38:25;101018.16;;;19.85;74.53
13709;BME280;54933;51.908;7.730;2023-02-18T10:49:55;101019.81;;;19.93;75.50
13709;BME280;54933;51.908;7.730;2023-02-18T10:52:22;101014.00;;;19.96;75.60
13709;BME280;54933;51.908;7.730;2023-02-18T10:54:52;101008.41;;;19.97;75.90
13709;BME280;54933;51.908;7.730;2023-02-18T10:57:20;101014.66;;;19.98;75.96
13709;BME280;54933;51.908;7.730;2023-02-18T10:59:57;101013.59;;;19.99;75.83
13709;BME280;54933;51.908;7.730;2023-02-18T11:02:26;101013.16;;;19.95;75.84
13709;BME280;54933;51.908;7.730;2023-02-18T11:04:54;101026.84;;;19.94;75.90
13709;BME280;54933;51.908;7.730;2023-02-18T11:07:26;101022.09;;;19.96;75.98
13709;BME280;54933;51.908;7.730;2023-02-18T11:09:54;101005.28;;;19.94;75.73
13709;BME280;54933;51.908;7.730;2023-02-18T11:12:54;101020.66;;;19.93;76.09
13709;BME280;54933;51.908;7.730;2023-02-18T11:15:23;101012.94;;;19.90;75.38
13709;BME280;54933;51.908;7.730;2023-02-18T11:17:51;101019.19;;;19.91;76.00
13709;BME280;54933;51.908;7.730;2023-02-18T11:20:29;101015.47;;;19.92;75.69
13709;BME280;54933;51.908;7.730;2023-02-18T11:23:14;101020.88;;;19.92;75.97
13709;BME280;54933;51.908;7.730;2023-02-18T11:25:41;101017.97;;;19.93;76.24
13709;BME280;54933;51.908;7.730;2023-02-18T11:30:44;101029.16;;;19.97;76.95
13709;BME280;54933;51.908;7.730;2023-02-18T11:33:21;101027.50;;;19.96;77.06
13709;BME280;54933;51.908;7.730;2023-02-18T11:35:53;101021.69;;;19.99;77.37
13709;BME280;54933;51.908;7.730;2023-02-18T11:38:36;101025.44;;;19.98;77.58
13709;BME280;54933;51.908;7.730;2023-02-18T11:41:06;101024.38;;;19.99;77.66
13709;BME280;54933;51.908;7.730;2023-02-18T11:43:33;101017.13;;;19.99;77.66
13709;BME280;54933;51.908;7.730;2023-02-18T11:48:36;101020.88;;;19.98;77.56
13709;BME280;54933;51.908;7.730;2023-02-18T11:51:02;101024.38;;;19.99;77.62
13709;BME280;54933;51.908;7.730;2023-02-18T11:53:36;101030.81;;;19.98;77.69
13709;BME280;54933;51.908;7.730;2023-02-18T11:56:14;101027.94;;;19.99;77.55
13709;BME280;54933;51.908;7.730;2023-02-18T11:58:43;101021.47;;;20.00;77.84
13709;BME280;54933;51.908;7.730;2023-02-18T12:01:14;101027.09;;;19.99;77.79
13709;BME280;54933;51.908;7.730;2023-02-18T12:03:50;101032.47;;;19.99;77.70
13709;BME280;54933;51.908;7.730;2023-02-18T12:06:23;101033.31;;;19.99;77.87
13709;BME280;54933;51.908;7.730;2023-02-18T12:08:54;101027.94;;;19.99;77.94
13709;BME280;54933;51.908;7.730;2023-02-18T12:11:35;101024.59;;;19.97;77.96
13709;BME280;54933;51.908;7.730;2023-02-18T12:14:02;101016.50;;;19.97;78.18
13709;BME280;54933;51.908;7.730;2023-02-18T12:16:39;101032.03;;;19.95;78.24
13709;BME280;54933;51.908;7.730;2023-02-18T12:22:11;101032.03;;;19.89;76.05
13709;BME280;54933;51.908;7.730;2023-02-18T12:28:23;101012.13;;;19.90;76.93
13709;BME280;54933;51.908;7.730;2023-02-18T12:36:44;101018.34;;;19.97;77.13
13709;BME280;54933;51.908;7.730;2023-02-18T12:39:36;101023.75;;;19.97;76.86
13709;BME280;54933;51.908;7.730;2023-02-18T12:50:23;101026.84;;;19.94;77.08
13709;BME280;54933;51.908;7.730;2023-02-18T13:10:04;101029.78;;;19.99;77.36
13709;BME280;54933;51.908;7.730;2023-02-18T13:12:42;101030.81;;;19.98;77.42
13709;BME280;54933;51.908;7.730;2023-02-18T13:15:18;101026.44;;;19.97;77.50
13709;BME280;54933;51.908;7.730;2023-02-18T13:17:47;101021.06;;;19.97;77.56
13709;BME280;54933;51.908;7.730;2023-02-18T13:20:29;101020.69;;;20.00;77.53
13709;BME280;54933;51.908;7.730;2023-02-18T13:22:58;101025.03;;;20.01;77.26
13709;BME280;54933;51.908;7.730;2023-02-18T13:25:24;101033.13;;;20.01;77.17
13709;BME280;54933;51.908;7.730;2023-02-18T13:34:07;101032.06;;;20.02;77.14
13709;BME280;54933;51.908;7.730;2023-02-18T13:39:15;101032.28;;;20.00;77.18
13709;BME280;54933;51.908;7.730;2023-02-18T13:41:45;101026.88;;;20.00;76.93
13709;BME280;54933;51.908;7.730;2023-02-18T13:46:53;101033.97;;;20.01;77.00
13709;BME280;54933;51.908;7.730;2023-02-18T13:49:22;101032.28;;;20.00;77.16
13709;BME280;54933;51.908;7.730;2023-02-18T13:51:50;101034.16;;;20.00;77.09
13709;BME280;54933;51.908;7.730;2023-02-18T13:54:28;101018.78;;;20.00;77.21
13709;BME280;54933;51.908;7.730;2023-02-18T13:57:00;101028.75;;;20.00;77.18
13709;BME280;54933;51.908;7.730;2023-02-18T13:59:45;101031.47;;;20.00;77.33
13709;BME280;54933;51.908;7.730;2023-02-18T14:10:19;101037.47;;;20.02;77.26
13709;BME280;54933;51.908;7.730;2023-02-18T14:25:50;101042.47;;;20.05;77.10
13709;BME280;54933;51.908;7.730;2023-02-18T14:31:05;101050.75;;;20.03;77.08
13709;BME280;54933;51.908;7.730;2023-02-18T14:34:06;101040.78;;;20.04;77.12
13709;BME280;54933;51.908;7.730;2023-02-18T14:39:48;101038.72;;;20.06;77.16
13709;BME280;54933;51.908;7.730;2023-02-18T14:42:38;101041.22;;;20.07;77.06
13709;BME280;54933;51.908;7.730;2023-02-18T14:48:30;101050.69;;;19.84;76.19
13709;BME280;54933;51.908;7.730;2023-02-18T14:51:02;101061.19;;;19.59;73.90
13709;BME280;54933;51.908;7.730;2023-02-18T14:53:28;101056.66;;;19.73;74.17
13709;BME280;54933;51.908;7.730;2023-02-18T14:55:57;101064.56;;;19.81;74.35
13709;BME280;54933;51.908;7.730;2023-02-18T14:58:35;101055.06;;;19.85;74.73
13709;BME280;54933;51.908;7.730;2023-02-18T15:01:17;101059.00;;;19.89;75.12
13709;BME280;54933;51.908;7.730;2023-02-18T15:03:43;101052.19;;;19.93;74.89